Terminal Aerodrome Forecast
Issued by NWS

Home | Current Version | Previous Version | Graphics & Text | Print | Product List | Glossary On
Versions: 1 2 3 4 5 6 7 8 9 10 11 12 13 14
000
FTUS43 KPAH 272300
TAFCGI
TAF
KCGI 272320Z 2800/2824 00000KT P6SM SCT250
     FM280700 00000KT 3SM BR SCT250
      TEMPO 2809/2813 1/4SM FG VV001
     FM281400 12003KT P6SM SCT050=

USA.gov is the U.S. government's official web portal to all federal, state and local government web resources and services.